Aérodrome :
LOGIN :

S'inscrire | Disclaimer

   EN    FR    IT 

 










Légende :    VFR   VFR Marginal   IFR   IFR Intensif   IFR Très Intensif
Visi : 
Plafond : 
>= 8 km
>= 3000ft
5 à 8 km
1000 à 3000 ft
1500m à 5 km
500 à 1000 ft
800 à 1500m
200 à 500 ft
< 800m
< 200 ft
Symboles :   Orages  Brouillard  Fortes neiges  Fortes précipitations  Vent > 20 kt
SIGMETs :   Divers  Orages  Givrage  Turbulence  Onde Orograph.  Cendres Volcan.






- Altitude de l'aérodrome : 14 ft
- Code IATA : BRE


EDDW - Bremen Neuenland

DERNIER METAR :
  • 141320Z AUTO 28013KT CAVOK 14/05 Q1020 TEMPO 28015G25KT

METARs EXPIRÉS :
  • 141250Z AUTO 28013KT CAVOK 13/03 Q1020 TEMPO 28015G25KT
  • 141220Z AUTO 27015KT CAVOK 14/03 Q1020 TEMPO 28015G25KT
  • 141150Z AUTO 27014KT 9999 BKN049 14/04 Q1021 TEMPO 28015G25KT
  • 141120Z AUTO 29012KT 250V320 9999 BKN047 13/04 Q1021 TEMPO 28015G25KT
  • 141050Z AUTO 26016KT 9999 BKN047 13/04 Q1021 TEMPO 28015G25KT
  • 141020Z AUTO 27015KT 9999 BKN044 13/03 Q1021 TEMPO 28015G25KT
  • 140950Z AUTO 28014KT 9999 FEW045 13/03 Q1021 TEMPO 28015G25KT
  • 140920Z AUTO 27014KT 240V300 9999 FEW043 12/03 Q1021 TEMPO 28015G25KT
  • 140850Z AUTO 27016KT 240V300 9999 FEW041 12/03 Q1020 BECMG 28015G25KT
  • 140820Z AUTO 27013KT 9999 FEW037 12/03 Q1020 BECMG 28015G25KT

TAF TAF EDDW
Valide du 14 à 12h jusqu'au 15 à 12h UTC


141100Z 1412/1512 28013G23KT 9999 SCT035
BECMG 1416/1419 29008KT
BECMG 1420/1422 23003KT
BECMG 1504/1506 20008KT
BECMG 1508/1510 21015G25KT



MET'MAP, la Météo Aéronautique d'un coup d'oeil ! - Copyright ORBIFLY Décembre 2007 - Disclaimer

ORBIFLY MET'MAP TEAM :

Programmation & Développement : Alexandra Zaïnal
Sur une idée originale de : Baudouin d'Aumeries
Soutien technique & logistique : Manuel Goepfert
Assistance : Marc-Olivier Méhu




SOURCES & CREDITS :

   NOAA